sensor_id;sensor_type;location;lat;lon;timestamp;P1;durP1;ratioP1;P2;durP2;ratioP2
79229;SDS011;68663;49.122;17.544;2023-06-04T00:01:03;3.63;;;2.53;;
79229;SDS011;68663;49.122;17.544;2023-06-04T00:03:29;5.45;;;3.03;;
79229;SDS011;68663;49.122;17.544;2023-06-04T00:05:55;5.10;;;3.05;;
79229;SDS011;68663;49.122;17.544;2023-06-04T00:08:21;5.80;;;3.00;;
79229;SDS011;68663;49.122;17.544;2023-06-04T00:10:46;5.60;;;2.90;;
79229;SDS011;68663;49.122;17.544;2023-06-04T00:13:12;4.47;;;2.60;;
79229;SDS011;68663;49.122;17.544;2023-06-04T00:15:38;4.80;;;2.70;;
79229;SDS011;68663;49.122;17.544;2023-06-04T00:18:03;4.22;;;2.75;;
79229;SDS011;68663;49.122;17.544;2023-06-04T00:20:29;6.65;;;3.03;;
79229;SDS011;68663;49.122;17.544;2023-06-04T00:22:55;4.95;;;2.92;;
79229;SDS011;68663;49.122;17.544;2023-06-04T00:25:20;3.83;;;3.13;;
79229;SDS011;68663;49.122;17.544;2023-06-04T00:27:45;3.70;;;2.88;;
79229;SDS011;68663;49.122;17.544;2023-06-04T00:30:11;5.90;;;3.43;;
79229;SDS011;68663;49.122;17.544;2023-06-04T00:32:37;3.65;;;2.78;;
79229;SDS011;68663;49.122;17.544;2023-06-04T00:35:02;5.38;;;2.97;;
79229;SDS011;68663;49.122;17.544;2023-06-04T00:37:28;5.47;;;3.05;;
79229;SDS011;68663;49.122;17.544;2023-06-04T00:39:54;3.60;;;2.83;;
79229;SDS011;68663;49.122;17.544;2023-06-04T00:42:20;3.77;;;3.30;;
79229;SDS011;68663;49.122;17.544;2023-06-04T00:44:46;4.25;;;2.88;;
79229;SDS011;68663;49.122;17.544;2023-06-04T00:47:13;5.88;;;2.70;;
79229;SDS011;68663;49.122;17.544;2023-06-04T00:49:39;3.60;;;2.67;;
79229;SDS011;68663;49.122;17.544;2023-06-04T00:52:06;4.53;;;3.20;;
79229;SDS011;68663;49.122;17.544;2023-06-04T00:54:34;5.65;;;2.90;;
79229;SDS011;68663;49.122;17.544;2023-06-04T00:56:59;3.78;;;2.97;;
79229;SDS011;68663;49.122;17.544;2023-06-04T00:59:25;4.60;;;3.22;;
79229;SDS011;68663;49.122;17.544;2023-06-04T01:01:56;4.20;;;3.10;;
79229;SDS011;68663;49.122;17.544;2023-06-04T01:04:29;4.53;;;3.10;;
79229;SDS011;68663;49.122;17.544;2023-06-04T01:07:00;5.90;;;3.10;;
79229;SDS011;68663;49.122;17.544;2023-06-04T01:11:53;4.82;;;2.63;;
79229;SDS011;68663;49.122;17.544;2023-06-04T01:14:19;4.47;;;2.92;;
79229;SDS011;68663;49.122;17.544;2023-06-04T01:24:56;4.85;;;2.97;;
79229;SDS011;68663;49.122;17.544;2023-06-04T01:27:27;4.47;;;2.83;;
79229;SDS011;68663;49.122;17.544;2023-06-04T01:29:55;4.40;;;2.88;;
79229;SDS011;68663;49.122;17.544;2023-06-04T01:32:22;4.57;;;3.00;;
79229;SDS011;68663;49.122;17.544;2023-06-04T01:34:48;3.67;;;2.50;;
79229;SDS011;68663;49.122;17.544;2023-06-04T01:37:14;4.80;;;3.10;;
79229;SDS011;68663;49.122;17.544;2023-06-04T01:39:41;4.70;;;3.00;;
79229;SDS011;68663;49.122;17.544;2023-06-04T01:42:07;4.53;;;3.00;;
79229;SDS011;68663;49.122;17.544;2023-06-04T01:44:33;5.88;;;3.22;;
79229;SDS011;68663;49.122;17.544;2023-06-04T01:46:59;5.13;;;3.35;;
79229;SDS011;68663;49.122;17.544;2023-06-04T01:49:24;4.03;;;2.58;;
79229;SDS011;68663;49.122;17.544;2023-06-04T01:51:50;5.88;;;2.90;;
79229;SDS011;68663;49.122;17.544;2023-06-04T01:54:15;4.32;;;3.00;;
79229;SDS011;68663;49.122;17.544;2023-06-04T01:56:41;4.35;;;3.28;;
79229;SDS011;68663;49.122;17.544;2023-06-04T01:59:07;4.03;;;2.80;;
79229;SDS011;68663;49.122;17.544;2023-06-04T02:01:32;4.40;;;2.65;;
79229;SDS011;68663;49.122;17.544;2023-06-04T02:03:59;5.00;;;3.33;;
79229;SDS011;68663;49.122;17.544;2023-06-04T02:06:25;4.85;;;2.78;;
79229;SDS011;68663;49.122;17.544;2023-06-04T02:08:56;5.07;;;3.20;;
79229;SDS011;68663;49.122;17.544;2023-06-04T02:11:21;3.75;;;2.63;;
79229;SDS011;68663;49.122;17.544;2023-06-04T02:13:47;4.38;;;3.05;;
79229;SDS011;68663;49.122;17.544;2023-06-04T02:16:12;8.38;;;3.22;;
79229;SDS011;68663;49.122;17.544;2023-06-04T02:18:38;3.67;;;2.85;;
79229;SDS011;68663;49.122;17.544;2023-06-04T02:21:03;5.68;;;3.13;;
79229;SDS011;68663;49.122;17.544;2023-06-04T02:23:29;5.47;;;2.95;;
79229;SDS011;68663;49.122;17.544;2023-06-04T02:25:55;3.85;;;3.03;;
79229;SDS011;68663;49.122;17.544;2023-06-04T02:28:20;4.13;;;3.03;;
79229;SDS011;68663;49.122;17.544;2023-06-04T02:30:46;5.00;;;3.08;;
79229;SDS011;68663;49.122;17.544;2023-06-04T02:33:12;4.13;;;2.85;;
79229;SDS011;68663;49.122;17.544;2023-06-04T02:35:39;4.78;;;3.50;;
79229;SDS011;68663;49.122;17.544;2023-06-04T02:38:06;6.60;;;3.03;;
79229;SDS011;68663;49.122;17.544;2023-06-04T02:40:31;4.40;;;2.83;;
79229;SDS011;68663;49.122;17.544;2023-06-04T02:42:57;4.43;;;2.90;;
79229;SDS011;68663;49.122;17.544;2023-06-04T02:45:22;4.50;;;3.10;;
79229;SDS011;68663;49.122;17.544;2023-06-04T02:47:48;4.78;;;2.97;;
79229;SDS011;68663;49.122;17.544;2023-06-04T02:50:14;4.25;;;2.92;;
79229;SDS011;68663;49.122;17.544;2023-06-04T02:52:40;6.65;;;3.08;;
79229;SDS011;68663;49.122;17.544;2023-06-04T02:55:06;4.40;;;2.80;;
79229;SDS011;68663;49.122;17.544;2023-06-04T02:57:34;5.35;;;3.28;;
79229;SDS011;68663;49.122;17.544;2023-06-04T03:00:00;4.65;;;2.97;;
79229;SDS011;68663;49.122;17.544;2023-06-04T03:02:26;4.70;;;3.28;;
79229;SDS011;68663;49.122;17.544;2023-06-04T03:04:52;5.20;;;3.08;;
79229;SDS011;68663;49.122;17.544;2023-06-04T03:07:20;4.68;;;2.83;;
79229;SDS011;68663;49.122;17.544;2023-06-04T03:09:47;4.05;;;3.30;;
79229;SDS011;68663;49.122;17.544;2023-06-04T03:12:13;5.20;;;3.00;;
79229;SDS011;68663;49.122;17.544;2023-06-04T03:14:39;2.92;;;2.40;;
79229;SDS011;68663;49.122;17.544;2023-06-04T03:17:05;4.25;;;3.22;;
79229;SDS011;68663;49.122;17.544;2023-06-04T03:19:38;4.72;;;3.20;;
79229;SDS011;68663;49.122;17.544;2023-06-04T03:22:06;4.90;;;3.08;;
79229;SDS011;68663;49.122;17.544;2023-06-04T03:24:36;4.13;;;2.90;;
79229;SDS011;68663;49.122;17.544;2023-06-04T03:27:04;6.47;;;3.05;;
79229;SDS011;68663;49.122;17.544;2023-06-04T03:29:30;4.20;;;2.78;;
79229;SDS011;68663;49.122;17.544;2023-06-04T03:31:57;9.05;;;3.05;;
79229;SDS011;68663;49.122;17.544;2023-06-04T03:34:23;7.45;;;2.90;;
79229;SDS011;68663;49.122;17.544;2023-06-04T03:36:51;5.70;;;3.08;;
79229;SDS011;68663;49.122;17.544;2023-06-04T03:39:17;4.10;;;3.05;;
79229;SDS011;68663;49.122;17.544;2023-06-04T03:41:43;5.57;;;2.70;;
79229;SDS011;68663;49.122;17.544;2023-06-04T03:44:09;4.93;;;2.97;;
79229;SDS011;68663;49.122;17.544;2023-06-04T03:46:35;4.18;;;3.00;;
79229;SDS011;68663;49.122;17.544;2023-06-04T03:49:01;4.20;;;2.72;;
79229;SDS011;68663;49.122;17.544;2023-06-04T03:51:27;4.00;;;2.97;;
79229;SDS011;68663;49.122;17.544;2023-06-04T03:53:52;5.93;;;2.95;;
79229;SDS011;68663;49.122;17.544;2023-06-04T03:56:18;3.47;;;2.80;;
79229;SDS011;68663;49.122;17.544;2023-06-04T03:58:43;7.05;;;3.03;;
79229;SDS011;68663;49.122;17.544;2023-06-04T04:01:09;4.88;;;3.00;;
79229;SDS011;68663;49.122;17.544;2023-06-04T04:03:35;4.57;;;3.58;;
79229;SDS011;68663;49.122;17.544;2023-06-04T04:06:01;6.07;;;3.03;;
79229;SDS011;68663;49.122;17.544;2023-06-04T04:08:26;3.80;;;2.97;;
79229;SDS011;68663;49.122;17.544;2023-06-04T04:10:56;6.03;;;3.33;;
79229;SDS011;68663;49.122;17.544;2023-06-04T04:13:24;5.03;;;3.05;;
79229;SDS011;68663;49.122;17.544;2023-06-04T04:15:50;5.50;;;3.13;;
79229;SDS011;68663;49.122;17.544;2023-06-04T04:18:21;5.65;;;3.10;;
79229;SDS011;68663;49.122;17.544;2023-06-04T04:20:47;5.18;;;3.05;;
79229;SDS011;68663;49.122;17.544;2023-06-04T04:23:13;5.30;;;3.08;;
79229;SDS011;68663;49.122;17.544;2023-06-04T04:25:38;4.55;;;3.05;;
79229;SDS011;68663;49.122;17.544;2023-06-04T04:28:04;4.40;;;2.67;;
79229;SDS011;68663;49.122;17.544;2023-06-04T04:30:36;4.38;;;3.05;;
79229;SDS011;68663;49.122;17.544;2023-06-04T04:33:02;5.03;;;3.40;;
79229;SDS011;68663;49.122;17.544;2023-06-04T04:37:57;4.18;;;2.90;;
79229;SDS011;68663;49.122;17.544;2023-06-04T04:40:23;4.60;;;3.10;;
79229;SDS011;68663;49.122;17.544;2023-06-04T04:42:48;6.03;;;3.17;;
79229;SDS011;68663;49.122;17.544;2023-06-04T04:45:14;4.00;;;2.93;;
79229;SDS011;68663;49.122;17.544;2023-06-04T04:47:39;4.63;;;2.90;;
79229;SDS011;68663;49.122;17.544;2023-06-04T04:50:05;3.53;;;2.85;;
79229;SDS011;68663;49.122;17.544;2023-06-04T04:52:30;3.72;;;2.85;;
79229;SDS011;68663;49.122;17.544;2023-06-04T04:54:56;4.22;;;2.90;;
79229;SDS011;68663;49.122;17.544;2023-06-04T04:57:23;3.65;;;2.80;;
79229;SDS011;68663;49.122;17.544;2023-06-04T04:59:48;5.45;;;2.80;;
79229;SDS011;68663;49.122;17.544;2023-06-04T05:02:14;5.15;;;2.70;;
79229;SDS011;68663;49.122;17.544;2023-06-04T05:04:40;4.15;;;2.90;;
79229;SDS011;68663;49.122;17.544;2023-06-04T05:07:05;5.05;;;3.30;;
79229;SDS011;68663;49.122;17.544;2023-06-04T05:09:31;6.30;;;3.65;;
79229;SDS011;68663;49.122;17.544;2023-06-04T05:11:56;4.47;;;2.90;;
79229;SDS011;68663;49.122;17.544;2023-06-04T05:14:22;4.45;;;3.35;;
79229;SDS011;68663;49.122;17.544;2023-06-04T05:16:47;4.82;;;3.20;;
79229;SDS011;68663;49.122;17.544;2023-06-04T05:19:15;6.82;;;3.78;;
79229;SDS011;68663;49.122;17.544;2023-06-04T05:21:41;5.13;;;2.88;;
79229;SDS011;68663;49.122;17.544;2023-06-04T05:24:07;6.15;;;3.35;;
79229;SDS011;68663;49.122;17.544;2023-06-04T05:26:32;5.07;;;3.00;;
79229;SDS011;68663;49.122;17.544;2023-06-04T05:28:58;7.00;;;3.60;;
79229;SDS011;68663;49.122;17.544;2023-06-04T05:31:24;6.43;;;3.20;;
79229;SDS011;68663;49.122;17.544;2023-06-04T05:33:51;5.50;;;3.50;;
79229;SDS011;68663;49.122;17.544;2023-06-04T05:36:17;4.68;;;3.22;;
79229;SDS011;68663;49.122;17.544;2023-06-04T05:38:43;4.28;;;3.05;;
79229;SDS011;68663;49.122;17.544;2023-06-04T05:41:08;6.03;;;3.60;;
79229;SDS011;68663;49.122;17.544;2023-06-04T05:43:34;4.93;;;3.30;;
79229;SDS011;68663;49.122;17.544;2023-06-04T05:46:00;5.15;;;3.47;;
79229;SDS011;68663;49.122;17.544;2023-06-04T05:48:25;3.97;;;3.37;;
79229;SDS011;68663;49.122;17.544;2023-06-04T05:50:51;11.23;;;3.35;;
79229;SDS011;68663;49.122;17.544;2023-06-04T05:53:16;4.72;;;3.15;;
79229;SDS011;68663;49.122;17.544;2023-06-04T05:55:42;6.38;;;3.83;;
79229;SDS011;68663;49.122;17.544;2023-06-04T05:58:08;8.10;;;4.15;;
79229;SDS011;68663;49.122;17.544;2023-06-04T06:00:33;10.10;;;3.58;;
79229;SDS011;68663;49.122;17.544;2023-06-04T06:03:00;5.03;;;3.17;;
79229;SDS011;68663;49.122;17.544;2023-06-04T06:05:26;8.38;;;3.72;;
79229;SDS011;68663;49.122;17.544;2023-06-04T06:07:51;6.07;;;4.20;;
79229;SDS011;68663;49.122;17.544;2023-06-04T06:10:17;9.52;;;3.65;;
79229;SDS011;68663;49.122;17.544;2023-06-04T06:12:42;5.18;;;3.00;;
79229;SDS011;68663;49.122;17.544;2023-06-04T06:15:08;5.63;;;3.70;;
79229;SDS011;68663;49.122;17.544;2023-06-04T06:17:35;7.18;;;3.72;;
79229;SDS011;68663;49.122;17.544;2023-06-04T06:20:00;5.57;;;3.40;;
79229;SDS011;68663;49.122;17.544;2023-06-04T06:22:26;5.97;;;3.55;;
79229;SDS011;68663;49.122;17.544;2023-06-04T06:24:52;9.40;;;3.50;;
79229;SDS011;68663;49.122;17.544;2023-06-04T06:27:17;7.00;;;3.20;;
79229;SDS011;68663;49.122;17.544;2023-06-04T06:29:43;5.70;;;3.40;;
79229;SDS011;68663;49.122;17.544;2023-06-04T06:32:12;12.68;;;4.55;;
79229;SDS011;68663;49.122;17.544;2023-06-04T06:34:37;7.93;;;4.07;;
79229;SDS011;68663;49.122;17.544;2023-06-04T06:37:03;12.63;;;5.38;;
79229;SDS011;68663;49.122;17.544;2023-06-04T06:39:29;10.55;;;4.60;;
79229;SDS011;68663;49.122;17.544;2023-06-04T06:41:55;14.35;;;5.53;;
79229;SDS011;68663;49.122;17.544;2023-06-04T06:44:20;17.48;;;5.70;;
79229;SDS011;68663;49.122;17.544;2023-06-04T06:46:47;14.82;;;4.95;;
79229;SDS011;68663;49.122;17.544;2023-06-04T06:49:13;20.25;;;6.28;;
79229;SDS011;68663;49.122;17.544;2023-06-04T06:51:39;14.65;;;6.03;;
79229;SDS011;68663;49.122;17.544;2023-06-04T06:54:05;15.98;;;5.85;;
79229;SDS011;68663;49.122;17.544;2023-06-04T06:56:30;13.02;;;4.85;;
79229;SDS011;68663;49.122;17.544;2023-06-04T06:58:56;17.35;;;6.28;;
79229;SDS011;68663;49.122;17.544;2023-06-04T07:01:21;15.23;;;6.10;;
79229;SDS011;68663;49.122;17.544;2023-06-04T07:03:47;21.17;;;7.15;;
79229;SDS011;68663;49.122;17.544;2023-06-04T07:06:12;24.30;;;8.00;;
79229;SDS011;68663;49.122;17.544;2023-06-04T07:08:38;18.92;;;7.18;;
79229;SDS011;68663;49.122;17.544;2023-06-04T07:11:04;22.30;;;7.82;;
79229;SDS011;68663;49.122;17.544;2023-06-04T07:13:30;21.52;;;8.18;;
79229;SDS011;68663;49.122;17.544;2023-06-04T07:15:58;21.33;;;7.30;;
79229;SDS011;68663;49.122;17.544;2023-06-04T07:18:25;24.20;;;7.68;;
79229;SDS011;68663;49.122;17.544;2023-06-04T07:20:50;18.38;;;7.00;;
79229;SDS011;68663;49.122;17.544;2023-06-04T07:23:17;15.73;;;6.68;;
79229;SDS011;68663;49.122;17.544;2023-06-04T07:25:43;21.73;;;6.35;;
79229;SDS011;68663;49.122;17.544;2023-06-04T07:28:08;18.33;;;6.22;;
79229;SDS011;68663;49.122;17.544;2023-06-04T07:30:34;18.33;;;6.68;;
79229;SDS011;68663;49.122;17.544;2023-06-04T07:32:59;15.40;;;6.47;;
79229;SDS011;68663;49.122;17.544;2023-06-04T07:35:25;16.10;;;7.13;;
79229;SDS011;68663;49.122;17.544;2023-06-04T07:37:50;19.27;;;7.32;;
79229;SDS011;68663;49.122;17.544;2023-06-04T07:40:16;15.27;;;6.78;;
79229;SDS011;68663;49.122;17.544;2023-06-04T07:42:42;17.70;;;6.47;;
79229;SDS011;68663;49.122;17.544;2023-06-04T07:45:10;15.02;;;5.85;;
79229;SDS011;68663;49.122;17.544;2023-06-04T07:47:35;14.70;;;6.63;;
79229;SDS011;68663;49.122;17.544;2023-06-04T07:50:02;13.48;;;5.85;;
79229;SDS011;68663;49.122;17.544;2023-06-04T07:52:28;16.77;;;6.30;;
79229;SDS011;68663;49.122;17.544;2023-06-04T07:54:53;21.08;;;6.60;;
79229;SDS011;68663;49.122;17.544;2023-06-04T07:57:19;14.43;;;5.97;;
79229;SDS011;68663;49.122;17.544;2023-06-04T07:59:44;17.40;;;6.40;;
79229;SDS011;68663;49.122;17.544;2023-06-04T08:02:10;13.00;;;6.00;;
79229;SDS011;68663;49.122;17.544;2023-06-04T08:04:35;12.38;;;5.38;;
79229;SDS011;68663;49.122;17.544;2023-06-04T08:07:01;12.13;;;5.18;;
79229;SDS011;68663;49.122;17.544;2023-06-04T08:09:26;12.93;;;5.75;;
79229;SDS011;68663;49.122;17.544;2023-06-04T08:11:52;11.60;;;5.07;;
79229;SDS011;68663;49.122;17.544;2023-06-04T08:14:17;13.82;;;5.47;;
79229;SDS011;68663;49.122;17.544;2023-06-04T08:16:43;9.73;;;5.38;;
79229;SDS011;68663;49.122;17.544;2023-06-04T08:19:09;11.30;;;5.20;;
79229;SDS011;68663;49.122;17.544;2023-06-04T08:21:34;13.23;;;5.72;;
79229;SDS011;68663;49.122;17.544;2023-06-04T08:24:00;8.88;;;5.22;;
79229;SDS011;68663;49.122;17.544;2023-06-04T08:26:26;13.43;;;5.57;;
79229;SDS011;68663;49.122;17.544;2023-06-04T08:28:54;10.95;;;4.63;;
79229;SDS011;68663;49.122;17.544;2023-06-04T08:31:20;10.02;;;5.35;;
79229;SDS011;68663;49.122;17.544;2023-06-04T08:33:45;10.93;;;5.13;;
79229;SDS011;68663;49.122;17.544;2023-06-04T08:36:11;12.23;;;5.30;;
79229;SDS011;68663;49.122;17.544;2023-06-04T08:38:36;12.63;;;4.85;;
79229;SDS011;68663;49.122;17.544;2023-06-04T08:41:04;9.68;;;4.55;;
79229;SDS011;68663;49.122;17.544;2023-06-04T08:43:37;11.73;;;5.10;;
79229;SDS011;68663;49.122;17.544;2023-06-04T08:46:05;8.63;;;4.32;;
79229;SDS011;68663;49.122;17.544;2023-06-04T08:48:34;9.00;;;4.18;;
79229;SDS011;68663;49.122;17.544;2023-06-04T08:51:00;8.48;;;4.20;;
79229;SDS011;68663;49.122;17.544;2023-06-04T08:53:30;10.75;;;5.07;;
79229;SDS011;68663;49.122;17.544;2023-06-04T08:55:55;12.45;;;5.45;;
79229;SDS011;68663;49.122;17.544;2023-06-04T08:58:21;10.20;;;4.25;;
79229;SDS011;68663;49.122;17.544;2023-06-04T09:00:48;12.40;;;4.45;;
79229;SDS011;68663;49.122;17.544;2023-06-04T09:03:14;12.65;;;5.30;;
79229;SDS011;68663;49.122;17.544;2023-06-04T09:05:40;12.35;;;5.07;;
79229;SDS011;68663;49.122;17.544;2023-06-04T09:08:12;12.18;;;4.13;;
79229;SDS011;68663;49.122;17.544;2023-06-04T09:10:41;8.35;;;4.13;;
79229;SDS011;68663;49.122;17.544;2023-06-04T09:13:09;7.93;;;4.10;;
79229;SDS011;68663;49.122;17.544;2023-06-04T09:15:36;6.70;;;4.00;;
79229;SDS011;68663;49.122;17.544;2023-06-04T09:18:01;10.40;;;4.15;;
79229;SDS011;68663;49.122;17.544;2023-06-04T09:20:27;5.60;;;3.85;;
79229;SDS011;68663;49.122;17.544;2023-06-04T09:22:53;8.70;;;3.50;;
79229;SDS011;68663;49.122;17.544;2023-06-04T09:25:19;5.95;;;3.60;;
79229;SDS011;68663;49.122;17.544;2023-06-04T09:27:52;9.60;;;3.80;;
79229;SDS011;68663;49.122;17.544;2023-06-04T09:30:22;7.32;;;3.83;;
79229;SDS011;68663;49.122;17.544;2023-06-04T09:32:48;7.88;;;4.05;;
79229;SDS011;68663;49.122;17.544;2023-06-04T09:35:14;9.38;;;3.88;;
79229;SDS011;68663;49.122;17.544;2023-06-04T09:37:41;8.05;;;3.80;;
79229;SDS011;68663;49.122;17.544;2023-06-04T09:40:08;6.80;;;3.72;;
79229;SDS011;68663;49.122;17.544;2023-06-04T09:45:09;5.60;;;3.38;;
79229;SDS011;68663;49.122;17.544;2023-06-04T09:47:38;7.20;;;3.40;;
79229;SDS011;68663;49.122;17.544;2023-06-04T09:50:05;8.45;;;4.18;;
79229;SDS011;68663;49.122;17.544;2023-06-04T09:52:34;7.13;;;3.83;;
79229;SDS011;68663;49.122;17.544;2023-06-04T09:55:00;7.82;;;3.97;;
79229;SDS011;68663;49.122;17.544;2023-06-04T09:57:25;9.52;;;3.63;;
79229;SDS011;68663;49.122;17.544;2023-06-04T09:59:54;5.75;;;3.47;;
79229;SDS011;68663;49.122;17.544;2023-06-04T10:02:22;6.53;;;3.58;;
79229;SDS011;68663;49.122;17.544;2023-06-04T10:04:54;7.38;;;3.50;;
79229;SDS011;68663;49.122;17.544;2023-06-04T10:07:22;9.48;;;4.28;;
79229;SDS011;68663;49.122;17.544;2023-06-04T10:09:49;5.50;;;3.45;;
79229;SDS011;68663;49.122;17.544;2023-06-04T10:12:16;6.90;;;3.40;;
79229;SDS011;68663;49.122;17.544;2023-06-04T10:14:46;5.43;;;3.28;;
79229;SDS011;68663;49.122;17.544;2023-06-04T10:17:17;5.43;;;3.50;;
79229;SDS011;68663;49.122;17.544;2023-06-04T10:19:46;6.43;;;3.40;;
79229;SDS011;68663;49.122;17.544;2023-06-04T10:22:14;6.05;;;3.33;;
79229;SDS011;68663;49.122;17.544;2023-06-04T10:24:40;5.40;;;3.42;;
79229;SDS011;68663;49.122;17.544;2023-06-04T10:27:06;7.15;;;3.45;;
79229;SDS011;68663;49.122;17.544;2023-06-04T10:29:36;7.38;;;3.40;;
79229;SDS011;68663;49.122;17.544;2023-06-04T10:32:02;4.80;;;2.75;;
79229;SDS011;68663;49.122;17.544;2023-06-04T10:34:28;4.78;;;3.25;;
79229;SDS011;68663;49.122;17.544;2023-06-04T10:36:53;6.60;;;3.35;;
79229;SDS011;68663;49.122;17.544;2023-06-04T10:39:29;5.32;;;3.03;;
79229;SDS011;68663;49.122;17.544;2023-06-04T10:44:31;6.80;;;3.03;;
79229;SDS011;68663;49.122;17.544;2023-06-04T10:47:17;6.63;;;3.33;;
79229;SDS011;68663;49.122;17.544;2023-06-04T10:50:05;7.93;;;3.40;;
79229;SDS011;68663;49.122;17.544;2023-06-04T10:52:32;5.28;;;3.17;;
79229;SDS011;68663;49.122;17.544;2023-06-04T10:55:04;6.47;;;3.33;;
79229;SDS011;68663;49.122;17.544;2023-06-04T10:57:31;4.53;;;2.92;;
79229;SDS011;68663;49.122;17.544;2023-06-04T10:59:58;4.88;;;3.03;;
79229;SDS011;68663;49.122;17.544;2023-06-04T11:02:24;4.95;;;2.78;;
79229;SDS011;68663;49.122;17.544;2023-06-04T11:05:01;5.60;;;2.97;;
79229;SDS011;68663;49.122;17.544;2023-06-04T11:07:39;6.32;;;2.83;;
79229;SDS011;68663;49.122;17.544;2023-06-04T11:10:06;4.35;;;2.50;;
79229;SDS011;68663;49.122;17.544;2023-06-04T11:12:40;4.95;;;2.72;;
79229;SDS011;68663;49.122;17.544;2023-06-04T11:15:13;4.43;;;2.85;;
79229;SDS011;68663;49.122;17.544;2023-06-04T11:17:49;4.85;;;2.83;;
79229;SDS011;68663;49.122;17.544;2023-06-04T11:20:18;4.53;;;3.05;;
79229;SDS011;68663;49.122;17.544;2023-06-04T11:22:54;4.22;;;2.85;;
79229;SDS011;68663;49.122;17.544;2023-06-04T11:25:25;4.07;;;3.00;;
79229;SDS011;68663;49.122;17.544;2023-06-04T11:27:52;5.57;;;3.22;;
79229;SDS011;68663;49.122;17.544;2023-06-04T11:30:19;7.35;;;3.30;;
79229;SDS011;68663;49.122;17.544;2023-06-04T11:32:44;6.75;;;3.30;;
79229;SDS011;68663;49.122;17.544;2023-06-04T11:35:10;7.68;;;2.83;;
79229;SDS011;68663;49.122;17.544;2023-06-04T11:37:36;5.65;;;3.17;;
79229;SDS011;68663;49.122;17.544;2023-06-04T11:40:02;5.85;;;2.95;;
79229;SDS011;68663;49.122;17.544;2023-06-04T11:42:31;4.55;;;3.15;;
79229;SDS011;68663;49.122;17.544;2023-06-04T11:44:56;6.47;;;2.88;;
79229;SDS011;68663;49.122;17.544;2023-06-04T11:47:25;6.40;;;2.88;;
79229;SDS011;68663;49.122;17.544;2023-06-04T11:49:54;7.43;;;3.00;;
79229;SDS011;68663;49.122;17.544;2023-06-04T11:52:21;7.30;;;3.50;;
79229;SDS011;68663;49.122;17.544;2023-06-04T11:54:46;6.18;;;3.05;;
79229;SDS011;68663;49.122;17.544;2023-06-04T11:57:12;5.38;;;2.67;;
79229;SDS011;68663;49.122;17.544;2023-06-04T11:59:38;7.70;;;3.47;;
79229;SDS011;68663;49.122;17.544;2023-06-04T12:02:03;5.63;;;3.00;;
79229;SDS011;68663;49.122;17.544;2023-06-04T12:04:30;7.93;;;3.33;;
79229;SDS011;68663;49.122;17.544;2023-06-04T12:07:00;5.43;;;3.10;;
79229;SDS011;68663;49.122;17.544;2023-06-04T12:09:31;4.78;;;3.05;;
79229;SDS011;68663;49.122;17.544;2023-06-04T12:12:03;6.93;;;3.60;;
79229;SDS011;68663;49.122;17.544;2023-06-04T12:14:30;254.88;;;72.38;;
79229;SDS011;68663;49.122;17.544;2023-06-04T12:17:00;154.02;;;37.65;;
79229;SDS011;68663;49.122;17.544;2023-06-04T12:19:47;84.70;;;23.77;;
79229;SDS011;68663;49.122;17.544;2023-06-04T12:22:13;60.60;;;19.70;;
79229;SDS011;68663;49.122;17.544;2023-06-04T12:24:52;47.47;;;16.15;;
79229;SDS011;68663;49.122;17.544;2023-06-04T12:27:23;57.75;;;16.27;;
79229;SDS011;68663;49.122;17.544;2023-06-04T12:32:28;36.03;;;11.43;;
79229;SDS011;68663;49.122;17.544;2023-06-04T12:34:54;41.60;;;13.43;;
79229;SDS011;68663;49.122;17.544;2023-06-04T12:37:21;41.30;;;13.45;;
79229;SDS011;68663;49.122;17.544;2023-06-04T12:39:47;37.97;;;12.73;;
79229;SDS011;68663;49.122;17.544;2023-06-04T12:42:12;24.25;;;10.65;;
79229;SDS011;68663;49.122;17.544;2023-06-04T12:44:38;28.75;;;11.75;;
79229;SDS011;68663;49.122;17.544;2023-06-04T12:47:05;19.98;;;7.70;;
79229;SDS011;68663;49.122;17.544;2023-06-04T12:49:31;25.85;;;8.40;;
79229;SDS011;68663;49.122;17.544;2023-06-04T12:51:57;19.55;;;8.18;;
79229;SDS011;68663;49.122;17.544;2023-06-04T12:54:23;17.88;;;6.63;;
79229;SDS011;68663;49.122;17.544;2023-06-04T12:56:48;20.25;;;8.18;;
79229;SDS011;68663;49.122;17.544;2023-06-04T12:59:14;19.63;;;7.60;;
79229;SDS011;68663;49.122;17.544;2023-06-04T13:01:39;20.80;;;6.75;;
79229;SDS011;68663;49.122;17.544;2023-06-04T13:04:05;17.15;;;5.78;;
79229;SDS011;68663;49.122;17.544;2023-06-04T13:06:33;11.45;;;5.30;;
79229;SDS011;68663;49.122;17.544;2023-06-04T13:09:00;11.80;;;5.03;;
79229;SDS011;68663;49.122;17.544;2023-06-04T13:11:26;12.68;;;6.05;;
79229;SDS011;68663;49.122;17.544;2023-06-04T13:13:52;13.95;;;5.22;;
79229;SDS011;68663;49.122;17.544;2023-06-04T13:16:17;10.18;;;5.32;;
79229;SDS011;68663;49.122;17.544;2023-06-04T13:18:42;8.60;;;4.97;;
79229;SDS011;68663;49.122;17.544;2023-06-04T13:21:08;9.43;;;4.57;;
79229;SDS011;68663;49.122;17.544;2023-06-04T13:23:33;9.03;;;4.17;;
79229;SDS011;68663;49.122;17.544;2023-06-04T13:25:59;7.65;;;3.85;;
79229;SDS011;68663;49.122;17.544;2023-06-04T13:28:25;6.50;;;4.05;;
79229;SDS011;68663;49.122;17.544;2023-06-04T13:30:51;8.25;;;4.57;;
79229;SDS011;68663;49.122;17.544;2023-06-04T13:33:16;7.67;;;4.07;;
79229;SDS011;68663;49.122;17.544;2023-06-04T13:35:44;6.50;;;3.85;;
79229;SDS011;68663;49.122;17.544;2023-06-04T13:38:09;6.53;;;3.90;;
79229;SDS011;68663;49.122;17.544;2023-06-04T13:40:37;5.38;;;4.13;;
79229;SDS011;68663;49.122;17.544;2023-06-04T13:43:04;7.13;;;3.88;;
79229;SDS011;68663;49.122;17.544;2023-06-04T13:45:30;6.40;;;4.13;;
79229;SDS011;68663;49.122;17.544;2023-06-04T13:47:55;6.83;;;4.40;;
79229;SDS011;68663;49.122;17.544;2023-06-04T13:50:23;6.45;;;3.88;;
79229;SDS011;68663;49.122;17.544;2023-06-04T13:52:49;7.68;;;3.92;;
79229;SDS011;68663;49.122;17.544;2023-06-04T13:55:16;6.65;;;4.07;;
79229;SDS011;68663;49.122;17.544;2023-06-04T13:57:41;5.70;;;3.92;;
79229;SDS011;68663;49.122;17.544;2023-06-04T14:00:06;5.73;;;3.60;;
79229;SDS011;68663;49.122;17.544;2023-06-04T14:02:32;6.93;;;3.75;;
79229;SDS011;68663;49.122;17.544;2023-06-04T14:04:58;6.13;;;4.67;;
79229;SDS011;68663;49.122;17.544;2023-06-04T14:07:23;5.20;;;4.17;;
79229;SDS011;68663;49.122;17.544;2023-06-04T14:09:49;9.80;;;4.55;;
79229;SDS011;68663;49.122;17.544;2023-06-04T14:12:19;7.20;;;4.00;;
79229;SDS011;68663;49.122;17.544;2023-06-04T14:14:45;8.07;;;4.57;;
79229;SDS011;68663;49.122;17.544;2023-06-04T14:17:10;7.18;;;3.78;;
79229;SDS011;68663;49.122;17.544;2023-06-04T14:19:36;5.03;;;4.10;;
79229;SDS011;68663;49.122;17.544;2023-06-04T14:22:01;4.45;;;3.85;;
79229;SDS011;68663;49.122;17.544;2023-06-04T14:24:27;7.82;;;4.20;;
79229;SDS011;68663;49.122;17.544;2023-06-04T14:26:52;5.63;;;4.13;;
79229;SDS011;68663;49.122;17.544;2023-06-04T14:29:18;7.45;;;4.05;;
79229;SDS011;68663;49.122;17.544;2023-06-04T14:31:44;5.38;;;4.28;;
79229;SDS011;68663;49.122;17.544;2023-06-04T14:34:10;7.65;;;4.82;;
79229;SDS011;68663;49.122;17.544;2023-06-04T14:36:36;6.28;;;3.80;;
79229;SDS011;68663;49.122;17.544;2023-06-04T14:39:01;6.72;;;4.20;;
79229;SDS011;68663;49.122;17.544;2023-06-04T14:41:27;6.50;;;4.70;;
79229;SDS011;68663;49.122;17.544;2023-06-04T14:43:52;5.60;;;3.70;;
79229;SDS011;68663;49.122;17.544;2023-06-04T14:46:18;8.60;;;4.53;;
79229;SDS011;68663;49.122;17.544;2023-06-04T14:48:43;5.07;;;3.95;;